Time;durP1;ratioP1;P1;durP2;ratioP2;P2;SDS_P1;SDS_P2;PMS_P1;PMS_P2;Temp;Humidity;BMP_temperature;BMP_pressure;BME280_temperature;BME280_humidity;BME280_pressure;Samples;Min_cycle;Max_cycle;Signal;HPM_P1;HPM_P2
2021/01/23 00:01:49;;;;;;;;;;;;;;;;;;5095366;28;19922;-60
2021/01/23 00:04:15;;;;;;;;;;;;;;;;;;5095472;28;20004;-59
2021/01/23 00:06:41;;;;;;;;;;;;;;;;;;5095177;28;19908;-60
2021/01/23 00:09:07;;;;;;;;;;;;;;;;;;5095630;28;19922;-60
2021/01/23 00:11:33;;;;;;;;;;;;;;;;;;5095230;28;19908;-60
2021/01/23 00:13:59;;;;;;;;;;;;;;;;;;5095214;28;19914;-60
2021/01/23 00:16:25;;;;;;;;;;;;;;;;;;5095190;28;19908;-60
2021/01/23 00:18:51;;;;;;;;;;;;;;;;;;5095174;28;20277;-60
2021/01/23 00:21:17;;;;;;;;;;;;;;;;;;5095388;28;19912;-60
2021/01/23 00:23:43;;;;;;;;;;;;;;;;;;5095324;28;20387;-60
2021/01/23 00:26:09;;;;;;;;;;;;;;;;;;5094990;28;19908;-60
2021/01/23 00:28:35;;;;;;;;;;;;;;;;;;5095297;28;19924;-59
2021/01/23 00:31:01;;;;;;;;;;;;;;;;;;5095170;28;20360;-60
2021/01/23 00:33:27;;;;;;;;;;;;;;;;;;5095236;28;19912;-60
2021/01/23 00:35:53;;;;;;;;;;;;;;;;;;5095154;28;20276;-59
2021/01/23 00:38:19;;;;;;;;;;;;;;;;;;5094649;28;19915;-60
2021/01/23 00:40:45;;;;;;;;;;;;;;;;;;5094830;28;20006;-60
2021/01/23 00:43:11;;;;;;;;;;;;;;;;;;5094773;28;19931;-59
2021/01/23 00:45:37;;;;;;;;;;;;;;;;;;5094561;28;19932;-60
2021/01/23 00:48:03;;;;;;;;;;;;;;;;;;5094535;28;19920;-59
2021/01/23 00:50:29;;;;;;;;;;;;;;;;;;5094592;28;19944;-60
2021/01/23 00:52:55;;;;;;;;;;;;;;;;;;5093924;28;19912;-60
2021/01/23 00:55:22;;;;;;;;;;;;;;;;;;5094621;28;19994;-60
2021/01/23 00:57:48;;;;;;;;;;;;;;;;;;5094825;28;20253;-59
2021/01/23 01:00:14;;;;;;;;;;;;;;;;;;5076386;28;20010;-60
2021/01/23 01:02:40;;;;;;;;;;;;;;;;;;5076144;28;19931;-59
2021/01/23 01:05:06;;;;;;;;;;;;;;;;;;5094397;28;20296;-60
2021/01/23 01:07:32;;;;;;;;;;;;;;;;;;5094767;28;19912;-60
2021/01/23 01:09:58;;;;;;;;;;;;;;;;;;5094451;28;20388;-60
2021/01/23 01:12:24;;;;;;;;;;;;;;;;;;5094099;28;19991;-60
2021/01/23 01:14:50;;;;;;;;;;;;;;;;;;5094213;28;19915;-60
2021/01/23 01:17:16;;;;;;;;;;;;;;;;;;5094118;28;20007;-60
2021/01/23 01:19:42;;;;;;;;;;;;;;;;;;5094151;28;19909;-59
2021/01/23 01:22:08;;;;;;;;;;;;;;;;;;5094079;28;19908;-60
2021/01/23 01:24:34;;;;;;;;;;;;;;;;;;5094351;28;19915;-60
2021/01/23 01:27:00;;;;;;;;;;;;;;;;;;5094134;28;19908;-60
2021/01/23 01:29:26;;;;;;;;;;;;;;;;;;5094291;28;20365;-60
2021/01/23 01:31:52;;;;;;;;;;;;;;;;;;5093992;28;20022;-60
2021/01/23 01:34:18;;;;;;;;;;;;;;;;;;5093936;28;19915;-60
2021/01/23 01:36:44;;;;;;;;;;;;;;;;;;5093823;28;19915;-60
2021/01/23 01:39:10;;;;;;;;;;;;;;;;;;5094085;28;20000;-60
2021/01/23 01:41:36;;;;;;;;;;;;;;;;;;5093876;28;19908;-60
2021/01/23 01:44:02;;;;;;;;;;;;;;;;;;5093735;28;19924;-60
2021/01/23 01:46:28;;;;;;;;;;;;;;;;;;5093819;28;19915;-60
2021/01/23 01:48:54;;;;;;;;;;;;;;;;;;5093718;28;19923;-60
2021/01/23 01:51:20;;;;;;;;;;;;;;;;;;5093861;28;20010;-60
2021/01/23 01:53:46;;;;;;;;;;;;;;;;;;5093875;28;19955;-59
2021/01/23 01:56:12;;;;;;;;;;;;;;;;;;5093977;28;19908;-59
2021/01/23 01:58:38;;;;;;;;;;;;;;;;;;5093670;28;19908;-59
2021/01/23 02:01:04;;;;;;;;;;;;;;;;;;5093686;28;20323;-59
2021/01/23 02:03:30;;;;;;;;;;;;;;;;;;5095386;28;19938;-60
2021/01/23 02:05:56;;;;;;;;;;;;;;;;;;5097764;28;19915;-60
2021/01/23 02:08:22;;;;;;;;;;;;;;;;;;5097559;28;19951;-60
2021/01/23 02:10:48;;;;;;;;;;;;;;;;;;5097596;28;20000;-59
2021/01/23 02:13:14;;;;;;;;;;;;;;;;;;5097484;28;19908;-60
2021/01/23 02:15:39;;;;;;;;;;;;;;;;;;5097624;28;19922;-60
2021/01/23 02:18:06;;;;;;;;;;;;;;;;;;5079415;28;19908;-60
2021/01/23 02:20:32;;;;;;;;;;;;;;;;;;5097464;28;19908;-59
2021/01/23 02:22:58;;;;;;;;;;;;;;;;;;5097299;28;19908;-60
2021/01/23 02:25:24;;;;;;;;;;;;;;;;;;5097559;28;19915;-60
2021/01/23 02:27:50;;;;;;;;;;;;;;;;;;5097475;28;19942;-60
2021/01/23 02:30:18;;;;;;;;;;;;;;;;;;5097404;28;20011;-60
2021/01/23 02:32:44;;;;;;;;;;;;;;;;;;5097213;28;19954;-60
2021/01/23 02:35:10;;;;;;;;;;;;;;;;;;5079120;28;19911;-60
2021/01/23 02:37:36;;;;;;;;;;;;;;;;;;5097133;28;19908;-60
2021/01/23 02:40:02;;;;;;;;;;;;;;;;;;5097275;28;19930;-59
2021/01/23 02:42:28;;;;;;;;;;;;;;;;;;5097000;28;19992;-60
2021/01/23 02:44:54;;;;;;;;;;;;;;;;;;5096742;28;19920;-60
2021/01/23 02:47:20;;;;;;;;;;;;;;;;;;5096891;28;19916;-59
2021/01/23 02:49:45;;;;;;;;;;;;;;;;;;5097158;28;19908;-60
2021/01/23 02:52:11;;;;;;;;;;;;;;;;;;5096870;28;20001;-60
2021/01/23 02:54:38;;;;;;;;;;;;;;;;;;5097058;28;19908;-60
2021/01/23 02:57:04;;;;;;;;;;;;;;;;;;5096977;22;19931;-64
2021/01/23 02:59:30;;;;;;;;;;;;;;;;;;5076612;28;19908;-63
2021/01/23 03:01:56;;;;;;;;;;;;;;;;;;5076422;28;20262;-64
2021/01/23 03:04:22;;;;;;;;;;;;;;;;;;5076368;28;19912;-64
2021/01/23 03:06:48;;;;;;;;;;;;;;;;;;5076342;28;19908;-63
2021/01/23 03:09:14;;;;;;;;;;;;;;;;;;5076231;28;19921;-63
2021/01/23 03:11:40;;;;;;;;;;;;;;;;;;5076300;28;19908;-63
2021/01/23 03:14:06;;;;;;;;;;;;;;;;;;5075842;28;20292;-64
2021/01/23 03:16:32;;;;;;;;;;;;;;;;;;5075808;28;19915;-64
2021/01/23 03:18:58;;;;;;;;;;;;;;;;;;5075975;28;19909;-65
2021/01/23 03:21:24;;;;;;;;;;;;;;;;;;5076161;28;19915;-64
2021/01/23 03:23:50;;;;;;;;;;;;;;;;;;5087393;28;19908;-64
2021/01/23 03:26:15;;;;;;;;;;;;;;;;;;5096248;28;19908;-64
2021/01/23 03:28:41;;;;;;;;;;;;;;;;;;5096365;28;19916;-63
2021/01/23 03:31:07;;;;;;;;;;;;;;;;;;5096315;28;20420;-64
2021/01/23 03:33:33;;;;;;;;;;;;;;;;;;5094767;28;19912;-64
2021/01/23 03:35:59;;;;;;;;;;;;;;;;;;5096310;28;20000;-64
2021/01/23 03:38:25;;;;;;;;;;;;;;;;;;5095986;28;19942;-63
2021/01/23 03:40:51;;;;;;;;;;;;;;;;;;5094824;28;20361;-64
2021/01/23 03:43:17;;;;;;;;;;;;;;;;;;5095896;28;19908;-63
2021/01/23 03:45:43;;;;;;;;;;;;;;;;;;5095905;28;19912;-63
2021/01/23 03:48:09;;;;;;;;;;;;;;;;;;5095683;28;19917;-64
2021/01/23 03:50:35;;;;;;;;;;;;;;;;;;5095998;28;19915;-64
2021/01/23 03:53:01;;;;;;;;;;;;;;;;;;5096067;28;19904;-64
2021/01/23 03:55:27;;;;;;;;;;;;;;;;;;5095689;28;19909;-63
2021/01/23 03:57:53;;;;;;;;;;;;;;;;;;5095256;28;19924;-64
2021/01/23 04:00:19;;;;;;;;;;;;;;;;;;5095810;28;19911;-64
2021/01/23 04:02:45;;;;;;;;;;;;;;;;;;5095352;28;19912;-63
2021/01/23 04:05:11;;;;;;;;;;;;;;;;;;5095712;28;19905;-64
2021/01/23 04:07:37;;;;;;;;;;;;;;;;;;5095506;28;19919;-64
2021/01/23 04:10:03;;;;;;;;;;;;;;;;;;5095709;28;19961;-63
2021/01/23 04:12:29;;;;;;;;;;;;;;;;;;5095638;28;20280;-64
2021/01/23 04:14:55;;;;;;;;;;;;;;;;;;5095522;28;19947;-64
2021/01/23 04:17:21;;;;;;;;;;;;;;;;;;5095216;28;20356;-63
2021/01/23 04:19:47;;;;;;;;;;;;;;;;;;5095392;28;19915;-64
2021/01/23 04:22:13;;;;;;;;;;;;;;;;;;5095125;28;20410;-64
2021/01/23 04:24:39;;;;;;;;;;;;;;;;;;5095037;28;19908;-63
2021/01/23 04:27:05;;;;;;;;;;;;;;;;;;5093912;28;19915;-63
2021/01/23 04:29:31;;;;;;;;;;;;;;;;;;5094916;28;20012;-63
2021/01/23 04:31:57;;;;;;;;;;;;;;;;;;5094980;28;20292;-63
2021/01/23 04:34:23;;;;;;;;;;;;;;;;;;5094784;28;19915;-63
2021/01/23 04:36:49;;;;;;;;;;;;;;;;;;5095245;28;20041;-64
2021/01/23 04:39:16;;;;;;;;;;;;;;;;;;5093658;28;19908;-64
2021/01/23 04:41:42;;;;;;;;;;;;;;;;;;5095102;28;20164;-63
2021/01/23 04:44:08;;;;;;;;;;;;;;;;;;5094711;28;19937;-63
2021/01/23 04:46:34;;;;;;;;;;;;;;;;;;5094604;28;19908;-63
2021/01/23 04:49:00;;;;;;;;;;;;;;;;;;5094683;28;19924;-64
2021/01/23 04:51:26;;;;;;;;;;;;;;;;;;5094705;28;20373;-64
2021/01/23 04:53:52;;;;;;;;;;;;;;;;;;5094610;28;19961;-64
2021/01/23 04:56:18;;;;;;;;;;;;;;;;;;5094338;28;19916;-64
2021/01/23 04:58:44;;;;;;;;;;;;;;;;;;5094731;28;19951;-63
2021/01/23 05:01:10;;;;;;;;;;;;;;;;;;5094588;28;19938;-63
2021/01/23 05:03:36;;;;;;;;;;;;;;;;;;5094433;28;19909;-63
2021/01/23 05:06:02;;;;;;;;;;;;;;;;;;5094546;28;19908;-63
2021/01/23 05:08:28;;;;;;;;;;;;;;;;;;5094288;28;19916;-63
2021/01/23 05:10:54;;;;;;;;;;;;;;;;;;5094512;28;19908;-63
2021/01/23 05:13:20;;;;;;;;;;;;;;;;;;5094279;28;19915;-63
2021/01/23 05:15:46;;;;;;;;;;;;;;;;;;5094221;28;19950;-63
2021/01/23 05:18:12;;;;;;;;;;;;;;;;;;5094189;28;19908;-63
2021/01/23 05:20:38;;;;;;;;;;;;;;;;;;5094139;28;20353;-63
2021/01/23 05:23:04;;;;;;;;;;;;;;;;;;5094369;28;20281;-63
2021/01/23 05:25:30;;;;;;;;;;;;;;;;;;5094144;28;19908;-63
2021/01/23 05:27:56;;;;;;;;;;;;;;;;;;5094191;28;19916;-63
2021/01/23 05:30:22;;;;;;;;;;;;;;;;;;5093951;28;20300;-63
2021/01/23 05:32:48;;;;;;;;;;;;;;;;;;5094096;28;19991;-64
2021/01/23 05:35:14;;;;;;;;;;;;;;;;;;5094027;28;19976;-63
2021/01/23 05:37:40;;;;;;;;;;;;;;;;;;5093909;28;19916;-63
2021/01/23 05:40:06;;;;;;;;;;;;;;;;;;5094148;28;19908;-63
2021/01/23 05:42:32;;;;;;;;;;;;;;;;;;5093993;28;19923;-64
2021/01/23 05:44:58;;;;;;;;;;;;;;;;;;5094036;28;19908;-63
2021/01/23 05:47:24;;;;;;;;;;;;;;;;;;5093987;28;19934;-63
2021/01/23 05:49:50;;;;;;;;;;;;;;;;;;5094087;28;20289;-63
2021/01/23 05:52:16;;;;;;;;;;;;;;;;;;5093807;28;19916;-64
2021/01/23 05:54:42;;;;;;;;;;;;;;;;;;5093760;28;19908;-63
2021/01/23 05:57:08;;;;;;;;;;;;;;;;;;5093719;28;19963;-63
2021/01/23 05:59:34;;;;;;;;;;;;;;;;;;5094090;28;20284;-63
2021/01/23 06:02:00;;;;;;;;;;;;;;;;;;5093965;28;19947;-62
2021/01/23 06:04:26;;;;;;;;;;;;;;;;;;5094051;28;19995;-63
2021/01/23 06:06:55;;;;;;;;;;;;;;;;;;5093873;28;20354;-63
2021/01/23 06:09:21;;;;;;;;;;;;;;;;;;5093800;28;19932;-64
2021/01/23 06:11:47;;;;;;;;;;;;;;;;;;5093595;28;19916;-63
2021/01/23 06:14:13;;;;;;;;;;;;;;;;;;5093965;28;19950;-63
2021/01/23 06:16:39;;;;;;;;;;;;;;;;;;5093540;28;19908;-63
2021/01/23 06:19:05;;;;;;;;;;;;;;;;;;5093958;28;20406;-63
2021/01/23 06:21:31;;;;;;;;;;;;;;;;;;5093835;28;19915;-63
2021/01/23 06:23:57;;;;;;;;;;;;;;;;;;5093495;28;20368;-63
2021/01/23 06:26:23;;;;;;;;;;;;;;;;;;5093449;28;19991;-63
2021/01/23 06:28:49;;;;;;;;;;;;;;;;;;5093507;28;19916;-63
2021/01/23 06:31:15;;;;;;;;;;;;;;;;;;5093687;28;19931;-63
2021/01/23 06:33:41;;;;;;;;;;;;;;;;;;5093424;28;20373;-64
2021/01/23 06:36:07;;;;;;;;;;;;;;;;;;5093298;28;19909;-63
2021/01/23 06:38:33;;;;;;;;;;;;;;;;;;5093654;28;19919;-64
2021/01/23 06:40:59;;;;;;;;;;;;;;;;;;5093412;28;19908;-63
2021/01/23 06:43:25;;;;;;;;;;;;;;;;;;5093291;28;20288;-64
2021/01/23 06:45:51;;;;;;;;;;;;;;;;;;5093294;28;19908;-64
2021/01/23 06:48:17;;;;;;;;;;;;;;;;;;5091987;28;19983;-64
2021/01/23 06:50:43;;;;;;;;;;;;;;;;;;5095542;28;19912;-63
2021/01/23 06:53:09;;;;;;;;;;;;;;;;;;5096909;28;19908;-64
2021/01/23 06:55:35;;;;;;;;;;;;;;;;;;5097058;28;19950;-64
2021/01/23 06:58:01;;;;;;;;;;;;;;;;;;5096694;28;19920;-64
2021/01/23 07:00:27;;;;;;;;;;;;;;;;;;5097132;28;19908;-64
2021/01/23 07:02:53;;;;;;;;;;;;;;;;;;5096786;28;20374;-63
2021/01/23 07:05:19;;;;;;;;;;;;;;;;;;5096754;28;19908;-64
2021/01/23 07:07:44;;;;;;;;;;;;;;;;;;5096482;28;19970;-63
2021/01/23 07:10:10;;;;;;;;;;;;;;;;;;5096634;28;19931;-63
2021/01/23 07:12:36;;;;;;;;;;;;;;;;;;5096666;28;19953;-64
2021/01/23 07:15:02;;;;;;;;;;;;;;;;;;5096390;28;19908;-65
2021/01/23 07:17:28;;;;;;;;;;;;;;;;;;5096412;28;19915;-64
2021/01/23 07:19:55;;;;;;;;;;;;;;;;;;5096662;28;19969;-64
2021/01/23 07:22:21;;;;;;;;;;;;;;;;;;5096594;28;19961;-65
2021/01/23 07:24:47;;;;;;;;;;;;;;;;;;5096446;28;20309;-65
2021/01/23 07:27:13;;;;;;;;;;;;;;;;;;5095975;28;19998;-65
2021/01/23 07:29:39;;;;;;;;;;;;;;;;;;5096327;28;19965;-64
2021/01/23 07:32:05;;;;;;;;;;;;;;;;;;5096034;28;19962;-64
2021/01/23 07:34:31;;;;;;;;;;;;;;;;;;5096413;28;19946;-64
2021/01/23 07:36:57;;;;;;;;;;;;;;;;;;5095991;28;20277;-65
2021/01/23 07:39:22;;;;;;;;;;;;;;;;;;5096236;28;20006;-64
2021/01/23 07:41:48;;;;;;;;;;;;;;;;;;5095913;28;20314;-64
2021/01/23 07:44:15;;;;;;;;;;;;;;;;;;5096291;28;19954;-64
2021/01/23 07:46:41;;;;;;;;;;;;;;;;;;5095617;28;19951;-64
2021/01/23 07:49:07;;;;;;;;;;;;;;;;;;5096006;28;19958;-65
2021/01/23 07:51:33;;;;;;;;;;;;;;;;;;5095790;28;20368;-64
2021/01/23 07:53:59;;;;;;;;;;;;;;;;;;5094699;28;19908;-64
2021/01/23 07:56:25;;;;;;;;;;;;;;;;;;5086588;28;19955;-64
2021/01/23 07:58:51;;;;;;;;;;;;;;;;;;5075260;28;19954;-64
2021/01/23 08:01:17;;;;;;;;;;;;;;;;;;5075470;28;19923;-64
2021/01/23 08:03:43;;;;;;;;;;;;;;;;;;5084603;28;20401;-64
2021/01/23 08:06:09;;;;;;;;;;;;;;;;;;5103152;28;19908;-64
2021/01/23 08:08:35;;;;;;;;;;;;;;;;;;5096466;28;19976;-63
2021/01/23 08:11:01;;;;;;;;;;;;;;;;;;5087116;28;19943;-64
2021/01/23 08:13:27;;;;;;;;;;;;;;;;;;5095321;28;20285;-63
2021/01/23 08:15:53;;;;;;;;;;;;;;;;;;5092850;28;20031;-63
2021/01/23 08:18:19;;;;;;;;;;;;;;;;;;5086408;28;19908;-62
2021/01/23 08:20:45;;;;;;;;;;;;;;;;;;5073773;28;19909;-63
2021/01/23 08:23:11;;;;;;;;;;;;;;;;;;5074875;28;19913;-64
2021/01/23 08:25:37;;;;;;;;;;;;;;;;;;5074762;28;20254;-64
2021/01/23 08:28:04;;;;;;;;;;;;;;;;;;5077402;28;19959;-64
2021/01/23 08:30:31;;;;;;;;;;;;;;;;;;5084340;28;19935;-62
2021/01/23 08:32:57;;;;;;;;;;;;;;;;;;5077497;28;19917;-62
2021/01/23 08:35:23;;;;;;;;;;;;;;;;;;5080459;28;19920;-64
2021/01/23 08:37:49;;;;;;;;;;;;;;;;;;5074707;28;19961;-63
2021/01/23 08:40:16;;;;;;;;;;;;;;;;;;5074418;28;19959;-63
2021/01/23 08:42:42;;;;;;;;;;;;;;;;;;5074447;28;19916;-63
2021/01/23 08:45:08;;;;;;;;;;;;;;;;;;5083303;28;19953;-59
2021/01/23 08:47:35;;;;;;;;;;;;;;;;;;5078701;28;20053;-60
2021/01/23 08:50:01;;;;;;;;;;;;;;;;;;5074482;28;19938;-60
2021/01/23 08:52:27;;;;;;;;;;;;;;;;;;5074160;28;20011;-60
2021/01/23 08:54:53;;;;;;;;;;;;;;;;;;5073030;28;19912;-61
2021/01/23 08:57:20;;;;;;;;;;;;;;;;;;5074259;28;19925;-62
2021/01/23 08:59:46;;;;;;;;;;;;;;;;;;5074135;28;19992;-62
2021/01/23 09:02:14;;;;;;;;;;;;;;;;;;5080637;28;19916;-62
2021/01/23 09:04:40;;;;;;;;;;;;;;;;;;5080823;28;20361;-62
2021/01/23 09:07:07;;;;;;;;;;;;;;;;;;5075878;28;20053;-60
2021/01/23 09:09:33;;;;;;;;;;;;;;;;;;5083688;28;19926;-60
2021/01/23 09:12:00;;;;;;;;;;;;;;;;;;5085233;28;20351;-60
2021/01/23 09:14:26;;;;;;;;;;;;;;;;;;5079185;28;19912;-62
2021/01/23 09:16:53;;;;;;;;;;;;;;;;;;5099883;28;19907;-61
2021/01/23 09:19:19;;;;;;;;;;;;;;;;;;5114610;28;19915;-62
2021/01/23 09:21:45;;;;;;;;;;;;;;;;;;5114417;28;19965;-61
2021/01/23 09:24:12;;;;;;;;;;;;;;;;;;5114333;28;20403;-61
2021/01/23 09:26:38;;;;;;;;;;;;;;;;;;5114367;28;20379;-61
2021/01/23 09:29:04;;;;;;;;;;;;;;;;;;5114059;28;19977;-61
2021/01/23 09:31:31;;;;;;;;;;;;;;;;;;5114219;28;19908;-61
2021/01/23 09:33:57;;;;;;;;;;;;;;;;;;5114142;28;19908;-61
2021/01/23 09:36:23;;;;;;;;;;;;;;;;;;5114221;28;19912;-61
2021/01/23 09:38:50;;;;;;;;;;;;;;;;;;5114069;28;19984;-62
2021/01/23 09:41:16;;;;;;;;;;;;;;;;;;5090284;28;20002;-61
2021/01/23 09:43:42;;;;;;;;;;;;;;;;;;5089011;28;19962;-61
2021/01/23 09:46:08;;;;;;;;;;;;;;;;;;5078504;28;20300;-63
2021/01/23 09:48:34;;;;;;;;;;;;;;;;;;5082350;28;20338;-61
2021/01/23 09:51:00;;;;;;;;;;;;;;;;;;5093690;28;19909;-61
2021/01/23 09:53:26;;;;;;;;;;;;;;;;;;5093005;28;19991;-61
2021/01/23 09:55:53;;;;;;;;;;;;;;;;;;5092633;28;19953;-61
2021/01/23 09:58:19;;;;;;;;;;;;;;;;;;5093254;28;19916;-63
2021/01/23 10:00:47;;;;;;;;;;;;;;;;;;5093655;28;19935;-63
2021/01/23 10:03:13;;;;;;;;;;;;;;;;;;5093524;28;19908;-63
2021/01/23 10:05:39;;;;;;;;;;;;;;;;;;5093622;28;19915;-63
2021/01/23 10:08:05;;;;;;;;;;;;;;;;;;5093322;28;19916;-63
2021/01/23 10:10:31;;;;;;;;;;;;;;;;;;5093426;28;19909;-63
2021/01/23 10:12:57;;;;;;;;;;;;;;;;;;5093499;28;19915;-63
2021/01/23 10:15:22;;;;;;;;;;;;;;;;;;5093215;28;20361;-63
2021/01/23 10:17:48;;;;;;;;;;;;;;;;;;5092121;28;19908;-63
2021/01/23 10:20:14;;;;;;;;;;;;;;;;;;5093352;28;19912;-63
2021/01/23 10:22:40;;;;;;;;;;;;;;;;;;5093352;28;19935;-63
2021/01/23 10:25:06;;;;;;;;;;;;;;;;;;5096211;28;20361;-63
2021/01/23 10:27:32;;;;;;;;;;;;;;;;;;5097145;28;20385;-63
2021/01/23 10:29:58;;;;;;;;;;;;;;;;;;5097095;28;20381;-62
2021/01/23 10:32:24;;;;;;;;;;;;;;;;;;5097138;28;19908;-63
2021/01/23 10:34:50;;;;;;;;;;;;;;;;;;5097360;28;20284;-63
2021/01/23 10:37:16;;;;;;;;;;;;;;;;;;5093390;28;19908;-63
2021/01/23 10:39:42;;;;;;;;;;;;;;;;;;5091687;28;19957;-63
2021/01/23 10:42:08;;;;;;;;;;;;;;;;;;5084275;28;19999;-63
2021/01/23 10:44:40;;;;;;;;;;;;;;;;;;5076617;28;19909;-62
2021/01/23 10:47:06;;;;;;;;;;;;;;;;;;5076494;28;19908;-63
2021/01/23 10:49:32;;;;;;;;;;;;;;;;;;5092674;28;20003;-63
2021/01/23 10:51:58;;;;;;;;;;;;;;;;;;5096764;28;20426;-62
2021/01/23 10:54:24;;;;;;;;;;;;;;;;;;5096624;28;19922;-62
2021/01/23 10:56:50;;;;;;;;;;;;;;;;;;5094320;28;20004;-62
2021/01/23 10:59:16;;;;;;;;;;;;;;;;;;5087675;28;19967;-62
2021/01/23 11:01:42;;;;;;;;;;;;;;;;;;5091719;28;19913;-62
2021/01/23 11:04:08;;;;;;;;;;;;;;;;;;5083840;28;20357;-62
2021/01/23 11:06:34;;;;;;;;;;;;;;;;;;5095326;28;20006;-63
2021/01/23 11:09:00;;;;;;;;;;;;;;;;;;5095556;28;19920;-63
2021/01/23 11:11:26;;;;;;;;;;;;;;;;;;5083876;28;20357;-63
2021/01/23 11:13:52;;;;;;;;;;;;;;;;;;5088447;28;19909;-63
2021/01/23 11:16:18;;;;;;;;;;;;;;;;;;5097476;28;19915;-63
2021/01/23 11:18:44;;;;;;;;;;;;;;;;;;5096082;28;20044;-62
2021/01/23 11:21:10;;;;;;;;;;;;;;;;;;5098423;28;19987;-63
2021/01/23 11:23:36;;;;;;;;;;;;;;;;;;5113102;28;19908;-63
2021/01/23 11:26:02;;;;;;;;;;;;;;;;;;5116229;28;20002;-63
2021/01/23 11:28:28;;;;;;;;;;;;;;;;;;5116602;28;20418;-62
2021/01/23 11:30:54;;;;;;;;;;;;;;;;;;5116296;28;19911;-63
2021/01/23 11:33:20;;;;;;;;;;;;;;;;;;5116753;28;19934;-62
2021/01/23 11:35:53;;;;;;;;;;;;;;;;;;5113585;28;19915;-62
2021/01/23 11:38:18;;;;;;;;;;;;;;;;;;5116215;28;19953;-63
2021/01/23 11:40:44;;;;;;;;;;;;;;;;;;5116307;28;20364;-62
2021/01/23 11:43:10;;;;;;;;;;;;;;;;;;5116335;28;19915;-62
2021/01/23 11:45:36;;;;;;;;;;;;;;;;;;5115987;28;20276;-62
2021/01/23 11:48:02;;;;;;;;;;;;;;;;;;5115727;28;19916;-63
2021/01/23 11:50:28;;;;;;;;;;;;;;;;;;5115906;28;19908;-63
2021/01/23 11:52:54;;;;;;;;;;;;;;;;;;5113105;28;19908;-61
2021/01/23 11:55:20;;;;;;;;;;;;;;;;;;5114988;28;19912;-62
2021/01/23 11:57:46;;;;;;;;;;;;;;;;;;5115664;28;19924;-64
2021/01/23 12:00:12;;;;;;;;;;;;;;;;;;5111429;28;19969;-62
2021/01/23 12:02:38;;;;;;;;;;;;;;;;;;5091473;28;19915;-62
2021/01/23 12:05:04;;;;;;;;;;;;;;;;;;5097504;28;19933;-63
2021/01/23 12:07:30;;;;;;;;;;;;;;;;;;5115535;28;19965;-62
2021/01/23 12:09:56;;;;;;;;;;;;;;;;;;5102181;28;19912;-61
2021/01/23 12:12:22;;;;;;;;;;;;;;;;;;5114301;28;19957;-60
2021/01/23 12:14:48;;;;;;;;;;;;;;;;;;5091696;28;19912;-62
2021/01/23 12:17:14;;;;;;;;;;;;;;;;;;5093001;28;19950;-62
2021/01/23 12:19:42;;;;;;;;;;;;;;;;;;5088358;28;20248;-62
2021/01/23 12:22:08;;;;;;;;;;;;;;;;;;5079003;28;20737;-63
2021/01/23 12:24:34;;;;;;;;;;;;;;;;;;5086206;28;19943;-63
2021/01/23 12:27:00;;;;;;;;;;;;;;;;;;5073067;28;19949;-63
2021/01/23 12:29:26;;;;;;;;;;;;;;;;;;5073641;28;19996;-63
2021/01/23 12:31:52;;;;;;;;;;;;;;;;;;5073421;28;19930;-63
2021/01/23 12:34:18;;;;;;;;;;;;;;;;;;5077861;28;19947;-63
2021/01/23 12:36:44;;;;;;;;;;;;;;;;;;5081314;28;19947;-62
2021/01/23 12:39:10;;;;;;;;;;;;;;;;;;5090050;28;19912;-61
2021/01/23 12:41:36;;;;;;;;;;;;;;;;;;5081069;28;19909;-61
2021/01/23 12:44:02;;;;;;;;;;;;;;;;;;5074142;28;19908;-61
2021/01/23 12:46:28;;;;;;;;;;;;;;;;;;5075018;28;19923;-62
2021/01/23 12:48:54;;;;;;;;;;;;;;;;;;5087173;28;20123;-63
2021/01/23 12:51:20;;;;;;;;;;;;;;;;;;5079255;28;19909;-64
2021/01/23 12:53:46;;;;;;;;;;;;;;;;;;5074768;28;19915;-62
2021/01/23 12:56:12;;;;;;;;;;;;;;;;;;5092250;28;19912;-64
2021/01/23 12:58:38;;;;;;;;;;;;;;;;;;5093089;28;19965;-63
2021/01/23 13:01:04;;;;;;;;;;;;;;;;;;5094053;28;19912;-64
2021/01/23 13:03:30;;;;;;;;;;;;;;;;;;5094661;28;20479;-64
2021/01/23 13:05:56;;;;;;;;;;;;;;;;;;5094297;28;19931;-63
2021/01/23 13:08:22;;;;;;;;;;;;;;;;;;5094253;28;19922;-63
2021/01/23 13:10:48;;;;;;;;;;;;;;;;;;5094056;28;19908;-63
2021/01/23 13:13:14;;;;;;;;;;;;;;;;;;5094276;28;19952;-63
2021/01/23 13:15:40;;;;;;;;;;;;;;;;;;5094252;28;19991;-64
2021/01/23 13:18:07;;;;;;;;;;;;;;;;;;5094168;28;19908;-63
2021/01/23 13:20:33;;;;;;;;;;;;;;;;;;5094306;28;19919;-64
2021/01/23 13:22:59;;;;;;;;;;;;;;;;;;5093948;28;19948;-63
2021/01/23 13:25:25;;;;;;;;;;;;;;;;;;5094416;28;19909;-63
2021/01/23 13:27:51;;;;;;;;;;;;;;;;;;5092786;28;19912;-63
2021/01/23 13:30:17;;;;;;;;;;;;;;;;;;5093924;28;19919;-63
2021/01/23 13:32:46;;;;;;;;;;;;;;;;;;5094067;28;19912;-63
2021/01/23 13:35:11;;;;;;;;;;;;;;;;;;5089928;28;20019;-63
2021/01/23 13:37:37;;;;;;;;;;;;;;;;;;5093974;28;19957;-63
2021/01/23 13:40:03;;;;;;;;;;;;;;;;;;5088088;28;19999;-64
2021/01/23 13:42:29;;;;;;;;;;;;;;;;;;5084508;28;20018;-62
2021/01/23 13:44:55;;;;;;;;;;;;;;;;;;5083735;28;19973;-62
2021/01/23 13:47:21;;;;;;;;;;;;;;;;;;5094084;28;19915;-61
2021/01/23 13:49:47;;;;;;;;;;;;;;;;;;5091338;28;19912;-61
2021/01/23 13:52:13;;;;;;;;;;;;;;;;;;5092469;28;20465;-61
2021/01/23 13:54:39;;;;;;;;;;;;;;;;;;5089812;28;20387;-61
2021/01/23 13:57:05;;;;;;;;;;;;;;;;;;5090308;28;19920;-61
2021/01/23 13:59:31;;;;;;;;;;;;;;;;;;5096045;28;20272;-61
2021/01/23 14:01:57;;;;;;;;;;;;;;;;;;5116846;28;19969;-60
2021/01/23 14:04:23;;;;;;;;;;;;;;;;;;5116680;28;19933;-61
2021/01/23 14:06:49;;;;;;;;;;;;;;;;;;5112524;28;20023;-61
2021/01/23 14:09:15;;;;;;;;;;;;;;;;;;5115328;28;19962;-61
2021/01/23 14:11:41;;;;;;;;;;;;;;;;;;5095048;28;19954;-61
2021/01/23 14:14:07;;;;;;;;;;;;;;;;;;5095491;28;19909;-62
2021/01/23 14:16:33;;;;;;;;;;;;;;;;;;5095808;28;19919;-62
2021/01/23 14:18:59;;;;;;;;;;;;;;;;;;5095487;28;19942;-61
2021/01/23 14:21:25;;;;;;;;;;;;;;;;;;5092317;28;19912;-62
2021/01/23 14:23:51;;;;;;;;;;;;;;;;;;5085885;28;19913;-61
2021/01/23 14:26:17;;;;;;;;;;;;;;;;;;5075357;28;19909;-62
2021/01/23 14:28:43;;;;;;;;;;;;;;;;;;5080730;28;19931;-62
2021/01/23 14:31:09;;;;;;;;;;;;;;;;;;5092705;28;19965;-61
2021/01/23 14:33:35;;;;;;;;;;;;;;;;;;5114954;28;19942;-62
2021/01/23 14:36:05;;;;;;;;;;;;;;;;;;5115761;28;20447;-61
2021/01/23 14:38:31;;;;;;;;;;;;;;;;;;5114692;28;19914;-61
2021/01/23 14:40:57;;;;;;;;;;;;;;;;;;5107297;28;19917;-63
2021/01/23 14:43:23;;;;;;;;;;;;;;;;;;5086644;28;19961;-62
2021/01/23 14:45:49;;;;;;;;;;;;;;;;;;5103440;28;19919;-62
2021/01/23 14:48:15;;;;;;;;;;;;;;;;;;5115343;28;20451;-63
2021/01/23 14:50:41;;;;;;;;;;;;;;;;;;5090793;28;19931;-62
2021/01/23 14:53:07;;;;;;;;;;;;;;;;;;5088878;28;19950;-60
2021/01/23 14:55:33;;;;;;;;;;;;;;;;;;5079963;28;19952;-62
2021/01/23 14:57:59;;;;;;;;;;;;;;;;;;5082988;28;20036;-62
2021/01/23 15:00:25;;;;;;;;;;;;;;;;;;5086536;28;19919;-61
2021/01/23 15:02:51;;;;;;;;;;;;;;;;;;5076115;28;20369;-62
2021/01/23 15:05:17;;;;;;;;;;;;;;;;;;5074270;28;20007;-60
2021/01/23 15:07:43;;;;;;;;;;;;;;;;;;5074339;28;19957;-62
2021/01/23 15:10:09;;;;;;;;;;;;;;;;;;5092224;28;19943;-62
2021/01/23 15:12:35;;;;;;;;;;;;;;;;;;5094369;28;19952;-62
2021/01/23 15:15:01;;;;;;;;;;;;;;;;;;5088059;28;19939;-62
2021/01/23 15:17:27;;;;;;;;;;;;;;;;;;5083142;28;20357;-62
2021/01/23 15:19:53;;;;;;;;;;;;;;;;;;5087220;28;20006;-63
2021/01/23 15:22:18;;;;;;;;;;;;;;;;;;5082219;28;19919;-63
2021/01/23 15:24:44;;;;;;;;;;;;;;;;;;5082973;28;19990;-61
2021/01/23 15:27:10;;;;;;;;;;;;;;;;;;5074504;28;19957;-62
2021/01/23 15:29:36;;;;;;;;;;;;;;;;;;5074538;28;20289;-62
2021/01/23 15:32:02;;;;;;;;;;;;;;;;;;5079596;28;19912;-62
2021/01/23 15:34:28;;;;;;;;;;;;;;;;;;5090060;28;19908;-63
2021/01/23 15:36:54;;;;;;;;;;;;;;;;;;5087693;28;20014;-63
2021/01/23 15:39:20;;;;;;;;;;;;;;;;;;5079554;28;20368;-63
2021/01/23 15:41:46;;;;;;;;;;;;;;;;;;5079619;28;20016;-64
2021/01/23 15:44:12;;;;;;;;;;;;;;;;;;5079697;28;19918;-63
2021/01/23 15:46:38;;;;;;;;;;;;;;;;;;5072648;28;20297;-64
2021/01/23 15:49:07;;;;;;;;;;;;;;;;;;5073905;28;19916;-64
2021/01/23 15:51:32;;;;;;;;;;;;;;;;;;5073983;28;19908;-64
2021/01/23 15:53:58;;;;;;;;;;;;;;;;;;5092140;28;20372;-62
2021/01/23 15:56:24;;;;;;;;;;;;;;;;;;5093224;28;19984;-64
2021/01/23 15:58:50;;;;;;;;;;;;;;;;;;5094019;28;19973;-64
2021/01/23 16:01:20;;;;;;;;;;;;;;;;;;5081692;28;19951;-63
2021/01/23 16:03:46;;;;;;;;;;;;;;;;;;5075628;28;20411;-63
2021/01/23 16:06:13;;;;;;;;;;;;;;;;;;5080071;28;19933;-62
2021/01/23 16:08:39;;;;;;;;;;;;;;;;;;5074970;28;19925;-63
2021/01/23 16:11:06;;;;;;;;;;;;;;;;;;5075448;28;19992;-63
2021/01/23 16:13:32;;;;;;;;;;;;;;;;;;5085549;28;19930;-63
2021/01/23 16:15:58;;;;;;;;;;;;;;;;;;5072941;28;19919;-62
2021/01/23 16:18:24;;;;;;;;;;;;;;;;;;5088142;28;19912;-63
2021/01/23 16:20:50;;;;;;;;;;;;;;;;;;5078967;28;20281;-63
2021/01/23 16:23:16;;;;;;;;;;;;;;;;;;5077396;28;19946;-63
2021/01/23 16:25:42;;;;;;;;;;;;;;;;;;5072309;28;19965;-63
2021/01/23 16:28:08;;;;;;;;;;;;;;;;;;5072770;28;19997;-64
2021/01/23 16:30:34;;;;;;;;;;;;;;;;;;5072976;28;19912;-63
2021/01/23 16:33:00;;;;;;;;;;;;;;;;;;5073088;28;19962;-63
2021/01/23 16:35:26;;;;;;;;;;;;;;;;;;5072950;28;20422;-64
2021/01/23 16:37:52;;;;;;;;;;;;;;;;;;5072934;28;19913;-63